Time;durP1;ratioP1;P1;durP2;ratioP2;P2;SDS_P1;SDS_P2;PMS_P1;PMS_P2;Temp;Humidity;BMP_temperature;BMP_pressure;BME280_temperature;BME280_humidity;BME280_pressure;Samples;Min_cycle;Max_cycle;Signal;HPM_P1;HPM_P2
2021/09/06 00:00:48;;;;;;;1.00;1.00;;;21.30;71.80;;;;;;5049261;28;20051;-85
2021/09/06 00:03:14;;;;;;;1.10;1.10;;;21.20;71.50;;;;;;5049570;28;20060;-84
2021/09/06 00:05:39;;;;;;;1.02;1.02;;;21.10;72.00;;;;;;5049992;28;20057;-80
2021/09/06 00:08:05;;;;;;;1.15;1.10;;;21.10;72.30;;;;;;5049931;28;20511;-81
2021/09/06 00:10:46;;;;;;;2.70;2.50;;;21.10;72.10;;;;;;5048048;28;20069;-83
2021/09/06 00:13:14;;;;;;;;;;;21.10;72.50;;;;;;5049002;28;20037;-80
2021/09/06 00:15:41;;;;;;;1.55;1.40;;;21.00;72.80;;;;;;5048640;28;20003;-84
2021/09/06 00:18:07;;;;;;;2.40;1.58;;;20.90;72.70;;;;;;5068125;28;20020;-81
2021/09/06 00:20:35;;;;;;;1.00;1.00;;;20.90;73.00;;;;;;5069705;28;20028;-81
2021/09/06 00:23:01;;;;;;;2.00;1.73;;;20.90;73.00;;;;;;5069877;28;20130;-81
2021/09/06 00:25:27;;;;;;;1.25;1.15;;;21.00;73.50;;;;;;5070436;28;20076;-85
2021/09/06 00:27:53;;;;;;;1.38;1.27;;;20.80;74.30;;;;;;5073324;28;20020;-80
2021/09/06 00:30:19;;;;;;;1.00;1.00;;;20.70;74.70;;;;;;5072775;28;20375;-83
2021/09/06 00:32:45;;;;;;;1.65;1.55;;;20.70;74.60;;;;;;5073189;28;20029;-84
2021/09/06 00:35:11;;;;;;;1.23;1.13;;;20.70;74.10;;;;;;5072911;28;20061;-82
2021/09/06 00:37:36;;;;;;;1.20;1.10;;;20.80;74.40;;;;;;5073200;28;20090;-85
2021/09/06 00:40:03;;;;;;;1.83;1.73;;;20.80;74.10;;;;;;5072968;28;20025;-84
2021/09/06 00:42:28;;;;;;;2.00;1.48;;;20.90;74.20;;;;;;5073141;28;20051;-84
2021/09/06 00:44:54;;;;;;;1.48;1.38;;;20.70;75.00;;;;;;5073516;28;20484;-87
2021/09/06 00:47:20;;;;;;;1.00;1.00;;;20.70;74.80;;;;;;5071810;28;20025;-85
2021/09/06 00:49:46;;;;;;;1.02;1.02;;;20.60;74.70;;;;;;5072711;28;20056;-86
2021/09/06 00:52:11;;;;;;;1.23;1.13;;;20.60;74.80;;;;;;5071815;28;20038;-84
2021/09/06 00:54:37;;;;;;;1.30;1.20;;;20.70;74.60;;;;;;5071626;28;20059;-85
2021/09/06 00:57:03;;;;;;;1.30;1.20;;;20.70;74.40;;;;;;5072709;28;20407;-84
2021/09/06 00:59:29;;;;;;;3.88;3.03;;;20.60;74.40;;;;;;5071452;28;20037;-82
2021/09/06 01:01:55;;;;;;;1.42;1.33;;;20.50;75.10;;;;;;5071732;28;20033;-84
2021/09/06 01:04:21;;;;;;;1.60;1.50;;;20.40;75.30;;;;;;5072700;28;20429;-83
2021/09/06 01:06:59;;;;;;;2.47;2.28;;;20.30;76.70;;;;;;5072501;28;20021;-84
2021/09/06 01:09:40;;;;;;;2.17;1.98;;;20.40;75.80;;;;;;5071086;28;20029;-85
2021/09/06 01:12:12;;;;;;;1.20;1.10;;;20.50;75.60;;;;;;5072100;28;20593;-84
2021/09/06 01:14:53;;;;;;;1.15;1.13;;;20.50;75.70;;;;;;5070916;28;20063;-86
2021/09/06 01:17:20;;;;;;;1.30;1.20;;;20.40;75.20;;;;;;5062837;28;20028;-85
2021/09/06 01:19:46;;;;;;;2.28;2.08;;;20.40;75.30;;;;;;5052514;28;20044;-89
2021/09/06 01:22:13;;;;;;;1.75;1.65;;;20.40;75.50;;;;;;5053408;28;20017;-84
2021/09/06 01:24:39;;;;;;;1.40;1.30;;;20.50;74.80;;;;;;5051693;28;20066;-83
2021/09/06 01:27:05;;;;;;;1.58;1.48;;;20.40;75.70;;;;;;5052011;28;20487;-84
2021/09/06 01:29:31;;;;;;;1.10;1.10;;;20.40;75.60;;;;;;5052409;28;20025;-82
2021/09/06 01:31:56;;;;;;;1.30;1.20;;;20.40;75.50;;;;;;5050421;28;20036;-82
2021/09/06 01:34:22;;;;;;;1.42;1.33;;;20.40;75.50;;;;;;5052306;28;20029;-85
2021/09/06 01:36:48;;;;;;;1.20;1.10;;;20.40;76.40;;;;;;5051321;28;20033;-83
2021/09/06 01:39:14;;;;;;;1.08;1.08;;;20.40;76.30;;;;;;5051808;28;20484;-84
2021/09/06 01:41:40;;;;;;;1.00;1.00;;;20.40;77.50;;;;;;5051244;28;20025;-85
2021/09/06 01:44:05;;;;;;;1.25;1.15;;;20.40;77.60;;;;;;5051816;28;20021;-88
2021/09/06 01:46:33;;;;;;;1.30;1.20;;;20.40;78.10;;;;;;5051418;28;20373;-83
2021/09/06 01:48:59;;;;;;;1.08;1.05;;;20.10;78.00;;;;;;5052023;28;20028;-83
2021/09/06 01:51:26;;;;;;;1.15;1.10;;;20.20;78.90;;;;;;5051521;28;20044;-81
2021/09/06 01:53:52;;;;;;;1.17;1.10;;;20.10;78.70;;;;;;5049855;28;20037;-87
2021/09/06 01:56:18;;;;;;;1.33;1.23;;;19.90;78.90;;;;;;5051359;28;20033;-81
2021/09/06 01:58:44;;;;;;;1.20;1.10;;;19.80;79.30;;;;;;5052019;28;20025;-83
2021/09/06 02:01:10;;;;;;;1.23;1.13;;;20.00;80.00;;;;;;5049417;28;20402;-83
2021/09/06 02:03:36;;;;;;;1.52;1.42;;;20.10;80.00;;;;;;5051778;28;20400;-82
2021/09/06 02:06:02;;;;;;;1.50;1.40;;;20.10;80.50;;;;;;5051622;28;20090;-84
2021/09/06 02:08:28;;;;;;;1.30;1.20;;;20.00;80.80;;;;;;5050383;28;20094;-85
2021/09/06 02:10:54;;;;;;;1.15;1.10;;;20.10;80.20;;;;;;5052655;28;20029;-85
2021/09/06 02:13:21;;;;;;;1.50;1.40;;;20.10;81.00;;;;;;5052042;28;20105;-82
2021/09/06 02:15:49;;;;;;;1.50;1.40;;;20.00;79.90;;;;;;5051947;28;20025;-83
2021/09/06 02:18:18;;;;;;;3.67;2.10;;;20.00;80.90;;;;;;5066023;28;20511;-90
2021/09/06 02:20:43;;;;;;;0.98;0.98;;;19.90;79.90;;;;;;5069783;28;20033;-82
2021/09/06 02:23:10;;;;;;;1.42;1.33;;;19.80;79.90;;;;;;5071014;28;20030;-82
2021/09/06 02:25:36;;;;;;;1.33;1.23;;;19.70;79.70;;;;;;5071263;28;20037;-87
2021/09/06 02:28:02;;;;;;;3.83;2.00;;;19.80;79.10;;;;;;5069986;28;20032;-82
2021/09/06 02:30:29;;;;;;;1.40;1.30;;;19.70;79.00;;;;;;5070108;28;20032;-81
2021/09/06 02:32:54;;;;;;;1.40;1.30;;;19.70;79.60;;;;;;5070779;28;20040;-82
2021/09/06 02:35:20;;;;;;;1.25;1.15;;;19.60;79.40;;;;;;5070573;28;20024;-89
2021/09/06 02:37:46;;;;;;;1.55;1.45;;;19.50;79.40;;;;;;5070801;28;20029;-83
2021/09/06 02:40:14;;;;;;;1.75;1.60;;;19.60;78.60;;;;;;5071205;28;20476;-79
2021/09/06 02:42:39;;;;;;;1.23;1.13;;;19.70;77.60;;;;;;5071194;28;20111;-82
2021/09/06 02:45:06;;;;;;;1.40;1.30;;;19.70;77.70;;;;;;5071589;28;20104;-81
2021/09/06 02:47:32;;;;;;;1.30;1.20;;;19.60;78.10;;;;;;5069804;28;20025;-82
2021/09/06 02:49:58;;;;;;;1.55;1.45;;;19.60;78.60;;;;;;5070614;28;20033;-81
2021/09/06 02:52:25;;;;;;;1.38;1.27;;;19.60;78.40;;;;;;5070346;28;20036;-81
2021/09/06 02:54:51;;;;;;;1.45;1.35;;;19.60;79.00;;;;;;5069289;28;20457;-85
2021/09/06 02:57:17;;;;;;;2.40;2.22;;;19.60;77.90;;;;;;5071471;28;20032;-80
2021/09/06 02:59:46;;;;;;;1.30;1.20;;;19.50;78.60;;;;;;5071309;28;20115;-82
2021/09/06 03:02:18;;;;;;;1.85;1.42;;;19.40;79.00;;;;;;5072161;28;20032;-81
2021/09/06 03:04:44;;;;;;;1.40;1.30;;;19.40;78.90;;;;;;5071774;28;20028;-82
2021/09/06 03:07:09;;;;;;;1.30;1.20;;;19.30;79.30;;;;;;5070899;28;20379;-84
2021/09/06 03:09:36;;;;;;;2.35;2.15;;;19.30;79.90;;;;;;5072184;28;20541;-83
2021/09/06 03:12:02;;;;;;;1.30;1.20;;;19.10;79.50;;;;;;5071645;28;20094;-81
2021/09/06 03:14:28;;;;;;;1.50;1.40;;;19.10;79.80;;;;;;5070772;28;20020;-79
2021/09/06 03:16:54;;;;;;;1.52;1.42;;;19.20;79.40;;;;;;5066922;28;20362;-84
2021/09/06 03:19:20;;;;;;;1.40;1.30;;;18.70;80.30;;;;;;5050208;28;20037;-82
2021/09/06 03:21:46;;;;;;;1.58;1.48;;;18.30;82.40;;;;;;5049038;28;20040;-83
2021/09/06 03:24:12;;;;;;;1.50;1.40;;;18.80;81.70;;;;;;5049415;28;20025;-84
2021/09/06 03:26:38;;;;;;;1.50;1.40;;;18.80;82.20;;;;;;5049427;28;20028;-85
2021/09/06 03:29:04;;;;;;;1.50;1.40;;;19.00;81.30;;;;;;5050177;28;20029;-80
2021/09/06 03:31:32;;;;;;;2.28;2.10;;;18.60;80.80;;;;;;5049976;28;20041;-82
2021/09/06 03:33:59;;;;;;;2.58;2.38;;;18.20;82.00;;;;;;5050154;28;20033;-81
2021/09/06 03:36:26;;;;;;;1.40;1.30;;;18.20;83.70;;;;;;5049875;28;20033;-80
2021/09/06 03:38:52;;;;;;;1.40;1.30;;;18.70;82.50;;;;;;5049834;28;20090;-81
2021/09/06 03:41:20;;;;;;;1.40;1.30;;;18.80;81.50;;;;;;5049670;28;20029;-83
2021/09/06 03:43:49;;;;;;;1.95;1.85;;;18.90;81.40;;;;;;5049911;28;20354;-84
2021/09/06 03:46:15;;;;;;;1.67;1.58;;;19.10;80.70;;;;;;5048222;28;20021;-84
2021/09/06 03:48:41;;;;;;;1.40;1.30;;;19.10;80.40;;;;;;5049717;28;20467;-81
2021/09/06 03:51:13;;;;;;;1.30;1.20;;;19.10;80.60;;;;;;5049718;28;20128;-84
2021/09/06 03:53:39;;;;;;;1.60;1.50;;;19.10;80.70;;;;;;5048559;28;20049;-85
2021/09/06 03:56:05;;;;;;;1.40;1.30;;;19.00;81.50;;;;;;5043572;22;20073;-83
2021/09/06 03:58:31;;;;;;;1.63;1.52;;;19.00;81.80;;;;;;5010331;28;20018;-83
2021/09/06 04:01:06;;;;;;;1.48;1.38;;;19.00;82.60;;;;;;5012756;28;20457;-83
2021/09/06 04:03:38;;;;;;;1.75;1.58;;;19.00;82.10;;;;;;5014291;28;20022;-81
2021/09/06 04:06:06;;;;;;;1.48;1.38;;;19.00;81.20;;;;;;5013948;28;20108;-83
2021/09/06 04:08:31;;;;;;;1.55;1.45;;;19.00;81.40;;;;;;5013833;28;20023;-84
2021/09/06 04:10:57;;;;;;;1.50;1.40;;;19.00;81.80;;;;;;5012804;28;20049;-80
2021/09/06 04:13:23;;;;;;;1.75;1.65;;;19.00;82.90;;;;;;5014038;28;20025;-80
2021/09/06 04:15:48;;;;;;;1.50;1.40;;;19.00;82.80;;;;;;5014822;28;20021;-81
2021/09/06 04:18:15;;;;;;;1.40;1.30;;;18.80;83.50;;;;;;5033884;28;20018;-82
2021/09/06 04:20:42;;;;;;;1.83;1.70;;;18.90;84.00;;;;;;5033887;28;20021;-80
2021/09/06 04:23:07;;;;;;;1.70;1.60;;;18.90;84.60;;;;;;5033193;28;20052;-82
2021/09/06 04:25:37;;;;;;;2.15;1.95;;;19.00;83.80;;;;;;5034566;28;20060;-82
2021/09/06 04:28:03;;;;;;;1.40;1.30;;;18.90;83.50;;;;;;5032550;28;20025;-85
2021/09/06 04:30:35;;;;;;;1.70;1.60;;;18.90;83.50;;;;;;5032610;28;20045;-82
2021/09/06 04:33:01;;;;;;;1.50;1.40;;;18.80;83.30;;;;;;5032715;28;20592;-83
2021/09/06 04:35:27;;;;;;;2.47;2.28;;;18.80;84.70;;;;;;5031875;28;20045;-81
2021/09/06 04:37:52;;;;;;;2.35;1.85;;;18.60;85.00;;;;;;5032555;28;20021;-88
2021/09/06 04:40:18;;;;;;;1.73;1.63;;;18.50;84.60;;;;;;5034094;28;20655;-81
2021/09/06 04:42:44;;;;;;;1.77;1.67;;;18.40;85.30;;;;;;5031282;28;20529;-78
2021/09/06 04:45:10;;;;;;;2.20;1.70;;;18.10;84.70;;;;;;5032264;28;20025;-82
2021/09/06 04:47:35;;;;;;;1.42;1.33;;;17.70;86.50;;;;;;5032534;28;20030;-80
2021/09/06 04:50:01;;;;;;;1.60;1.50;;;17.70;87.30;;;;;;5032147;28;20040;-82
2021/09/06 04:52:27;;;;;;;1.50;1.40;;;17.60;86.60;;;;;;5032767;28;20069;-83
2021/09/06 04:54:53;;;;;;;1.40;1.30;;;17.90;86.90;;;;;;5032245;28;20030;-82
2021/09/06 04:57:19;;;;;;;2.40;2.20;;;18.20;86.10;;;;;;5031584;28;20058;-82
2021/09/06 04:59:44;;;;;;;2.30;1.88;;;18.00;86.50;;;;;;5032754;28;20033;-86
2021/09/06 05:02:10;;;;;;;1.70;1.60;;;18.10;86.30;;;;;;5033472;28;20040;-84
2021/09/06 05:04:36;;;;;;;1.40;1.30;;;18.30;86.10;;;;;;5033431;28;20319;-81
2021/09/06 05:07:02;;;;;;;1.40;1.30;;;18.40;84.90;;;;;;5033022;28;20021;-82
2021/09/06 05:09:27;;;;;;;1.40;1.30;;;18.60;84.90;;;;;;5033350;28;20036;-79
2021/09/06 05:11:53;;;;;;;1.50;1.40;;;18.80;84.40;;;;;;5030825;28;20049;-83
2021/09/06 05:14:19;;;;;;;1.20;1.10;;;18.70;84.20;;;;;;5030224;28;20489;-89
2021/09/06 05:16:44;;;;;;;1.63;1.52;;;19.00;83.90;;;;;;5025985;28;20046;-78
2021/09/06 05:19:10;;;;;;;1.63;1.52;;;19.30;83.40;;;;;;5014116;28;20397;-79
2021/09/06 05:21:36;;;;;;;1.40;1.30;;;19.30;84.90;;;;;;5012305;28;20026;-77
2021/09/06 05:24:03;;;;;;;1.20;1.10;;;19.40;86.30;;;;;;5012824;28;20481;-82
2021/09/06 05:26:29;;;;;;;1.58;1.48;;;19.40;86.50;;;;;;4861694;28;82448;-80
2021/09/06 05:28:55;;;;;;;3.35;3.05;;;19.40;86.70;;;;;;4942646;28;20046;-90
2021/09/06 05:31:21;;;;;;;4.70;4.30;;;19.60;85.50;;;;;;4952218;28;20027;-79
2021/09/06 05:33:47;;;;;;;4.30;3.03;;;19.80;85.50;;;;;;4951911;29;20103;-80
2021/09/06 05:36:15;;;;;;;1.40;1.30;;;19.90;84.90;;;;;;4952787;28;20078;-77
2021/09/06 05:38:41;;;;;;;1.60;1.50;;;20.00;84.30;;;;;;4953369;28;20023;-78
2021/09/06 05:41:07;;;;;;;1.50;1.40;;;20.00;84.30;;;;;;4953546;28;20079;-80
2021/09/06 05:43:33;;;;;;;1.75;1.65;;;20.10;84.80;;;;;;4953159;28;20061;-79
2021/09/06 05:45:59;;;;;;;1.33;1.23;;;20.00;84.50;;;;;;4953875;28;20126;-78
2021/09/06 05:48:25;;;;;;;1.67;1.52;;;20.00;84.80;;;;;;4953624;28;20105;-78
2021/09/06 05:50:51;;;;;;;1.92;1.73;;;20.00;84.70;;;;;;4953580;28;20047;-85
2021/09/06 05:53:17;;;;;;;2.03;1.83;;;20.00;84.40;;;;;;4953926;28;20035;-84
2021/09/06 05:55:44;;;;;;;1.55;1.45;;;20.00;84.80;;;;;;4954395;28;20602;-88
2021/09/06 05:58:09;;;;;;;2.00;1.80;;;20.00;84.40;;;;;;4952978;29;20041;-85
2021/09/06 06:00:36;;;;;;;1.25;1.15;;;20.10;84.70;;;;;;4954786;28;20027;-89
2021/09/06 06:03:02;;;;;;;2.78;1.77;;;20.10;84.90;;;;;;4953230;29;20387;-89
2021/09/06 06:05:28;;;;;;;1.30;1.20;;;20.10;85.30;;;;;;4954379;28;20027;-91
2021/09/06 06:07:54;;;;;;;2.42;2.22;;;20.30;86.00;;;;;;4953463;29;20058;-87
2021/09/06 06:10:20;;;;;;;1.10;1.10;;;20.30;85.90;;;;;;4955443;28;20070;-89
2021/09/06 06:12:46;;;;;;;1.20;1.10;;;20.30;85.30;;;;;;4957827;28;20035;-88
2021/09/06 06:15:12;;;;;;;1.40;1.33;;;20.30;84.90;;;;;;4955044;28;20038;-83
2021/09/06 06:17:39;;;;;;;1.40;1.30;;;20.20;85.00;;;;;;4939934;28;20152;-84
2021/09/06 06:20:06;;;;;;;1.67;1.58;;;20.30;83.90;;;;;;4935373;29;20023;-93
2021/09/06 06:22:32;;;;;;;1.60;1.50;;;20.40;83.80;;;;;;4935008;29;20031;-89
2021/09/06 06:24:58;;;;;;;1.25;1.15;;;20.50;83.80;;;;;;4937245;29;20027;-90
2021/09/06 06:27:24;;;;;;;1.23;1.13;;;20.80;83.20;;;;;;4935454;29;20039;-92
2021/09/06 06:29:50;;;;;;;1.92;1.80;;;20.60;82.50;;;;;;4934094;29;20023;-86
2021/09/06 06:32:15;;;;;;;3.17;1.60;;;20.70;82.80;;;;;;4934757;29;20047;-83
2021/09/06 06:34:41;;;;;;;1.00;1.00;;;20.70;82.20;;;;;;4932798;29;20396;-81
2021/09/06 06:37:07;;;;;;;0.95;0.95;;;20.70;82.60;;;;;;4933525;29;20042;-81
2021/09/06 06:39:33;;;;;;;1.05;1.05;;;20.70;83.00;;;;;;4934218;29;20090;-82
2021/09/06 06:41:58;;;;;;;3.35;2.13;;;20.70;82.70;;;;;;4933885;29;20039;-82
2021/09/06 06:44:25;;;;;;;1.42;1.33;;;20.60;83.20;;;;;;4932888;29;20047;-88
2021/09/06 06:46:51;;;;;;;1.10;1.10;;;20.70;82.60;;;;;;4931291;29;20032;-81
2021/09/06 06:49:16;;;;;;;1.00;1.00;;;20.70;83.20;;;;;;4933772;29;20086;-86
2021/09/06 06:51:42;;;;;;;1.00;1.00;;;20.90;82.80;;;;;;4932045;29;20040;-87
2021/09/06 06:54:08;;;;;;;1.10;1.10;;;20.90;82.00;;;;;;4932168;29;20035;-81
2021/09/06 06:56:34;;;;;;;1.00;1.00;;;20.90;82.40;;;;;;4933721;29;20496;-80
2021/09/06 06:59:00;;;;;;;1.00;1.00;;;20.90;82.80;;;;;;4932372;29;20035;-82
2021/09/06 07:01:25;;;;;;;1.10;1.10;;;20.90;82.00;;;;;;4933597;29;20506;-89
2021/09/06 07:03:51;;;;;;;1.20;1.10;;;21.00;82.00;;;;;;4932031;29;20546;-84
2021/09/06 07:06:17;;;;;;;1.00;1.00;;;21.10;82.50;;;;;;4933079;29;20043;-80
2021/09/06 07:08:43;;;;;;;1.30;1.20;;;21.30;82.40;;;;;;4933447;29;20035;-83
2021/09/06 07:11:08;;;;;;;1.45;1.35;;;21.40;82.90;;;;;;4932207;29;20056;-82
2021/09/06 07:13:34;;;;;;;1.10;1.08;;;21.40;82.40;;;;;;4933524;29;20129;-83
2021/09/06 07:16:00;;;;;;;0.90;0.90;;;21.50;82.20;;;;;;4933498;29;20109;-85
2021/09/06 07:18:26;;;;;;;1.30;1.20;;;21.70;81.30;;;;;;4951470;29;20285;-83
2021/09/06 07:20:51;;;;;;;1.20;1.10;;;21.70;79.50;;;;;;4952236;28;20499;-89
2021/09/06 07:23:17;;;;;;;2.35;1.38;;;21.60;79.50;;;;;;4952122;28;20432;-85
2021/09/06 07:25:43;;;;;;;1.58;1.48;;;21.60;79.40;;;;;;4952190;28;20039;-83
2021/09/06 07:28:08;;;;;;;0.90;0.90;;;21.60;80.40;;;;;;4952291;28;20035;-80
2021/09/06 07:30:34;;;;;;;1.00;1.00;;;21.70;80.60;;;;;;4951001;29;20031;-84
2021/09/06 07:33:02;;;;;;;1.05;1.05;;;21.70;81.00;;;;;;4952700;28;20058;-83
2021/09/06 07:35:28;;;;;;;0.80;0.80;;;21.80;80.60;;;;;;4955848;28;20031;-81
2021/09/06 07:37:54;;;;;;;1.20;1.10;;;21.90;80.80;;;;;;4956530;28;20479;-87
2021/09/06 07:40:20;;;;;;;1.00;1.00;;;21.90;80.10;;;;;;4954419;28;20049;-82
2021/09/06 07:42:47;;;;;;;1.48;1.10;;;21.90;79.80;;;;;;4955864;28;20494;-80
2021/09/06 07:45:13;;;;;;;1.20;1.10;;;21.90;80.40;;;;;;4956078;28;20079;-81
2021/09/06 07:47:39;;;;;;;1.00;1.00;;;21.90;80.70;;;;;;4955717;28;20027;-85
2021/09/06 07:50:07;;;;;;;1.10;1.00;;;22.00;80.90;;;;;;4955844;28;20019;-81
2021/09/06 07:52:34;;;;;;;0.93;0.93;;;22.00;82.10;;;;;;4955187;28;20043;-82
2021/09/06 07:55:00;;;;;;;1.20;1.10;;;21.70;82.10;;;;;;4954878;28;20023;-84
2021/09/06 07:57:26;;;;;;;0.80;0.80;;;21.90;83.70;;;;;;4955704;28;20047;-81
2021/09/06 07:59:52;;;;;;;3.90;1.88;;;22.00;83.50;;;;;;4955205;28;20042;-81
2021/09/06 08:02:18;;;;;;;1.00;1.00;;;22.10;85.00;;;;;;4955939;28;20376;-85
2021/09/06 08:04:43;;;;;;;0.80;0.80;;;22.20;86.60;;;;;;4955353;28;20560;-84
2021/09/06 08:07:09;;;;;;;0.93;0.93;;;22.30;86.80;;;;;;4955748;28;20491;-80
2021/09/06 08:09:35;;;;;;;1.25;1.15;;;22.40;86.00;;;;;;4955392;28;20027;-89
2021/09/06 08:12:00;;;;;;;1.00;1.00;;;22.60;85.00;;;;;;4953879;28;20130;-85
2021/09/06 08:14:27;;;;;;;0.80;0.80;;;22.70;84.00;;;;;;4955772;28;20054;-82
2021/09/06 08:16:54;;;;;;;1.00;0.98;;;22.70;83.60;;;;;;4953456;29;20502;-87
2021/09/06 08:19:19;;;;;;;0.88;0.88;;;22.60;83.30;;;;;;4955367;28;20494;-82
2021/09/06 08:21:46;;;;;;;0.80;0.80;;;22.50;82.90;;;;;;4955023;29;20027;-81
2021/09/06 08:24:13;;;;;;;1.83;1.73;;;22.60;83.30;;;;;;4955392;28;20047;-80
2021/09/06 08:26:39;;;;;;;0.77;0.77;;;22.50;82.80;;;;;;4954920;29;20045;-81
2021/09/06 08:29:05;;;;;;;0.77;0.77;;;22.60;82.00;;;;;;4954099;29;20479;-89
2021/09/06 08:31:31;;;;;;;1.33;1.23;;;22.90;82.80;;;;;;4954966;29;20036;-81
2021/09/06 08:33:58;;;;;;;1.38;1.27;;;23.00;81.20;;;;;;4953642;29;20464;-80
2021/09/06 08:36:24;;;;;;;1.90;1.77;;;23.00;81.30;;;;;;4955224;29;20035;-84
2021/09/06 08:38:50;;;;;;;1.23;1.13;;;23.30;81.30;;;;;;4955338;29;20130;-87
2021/09/06 08:41:16;;;;;;;1.60;1.23;;;23.40;79.70;;;;;;4955398;28;20455;-86
2021/09/06 08:43:42;;;;;;;0.95;0.95;;;23.60;79.20;;;;;;4954083;29;20565;-86
2021/09/06 08:46:08;;;;;;;0.93;0.88;;;23.80;79.40;;;;;;4953657;28;20148;-86
2021/09/06 08:48:34;;;;;;;0.90;0.90;;;23.90;79.30;;;;;;4956322;29;20424;-89
2021/09/06 08:51:00;;;;;;;1.27;1.17;;;23.80;79.40;;;;;;4955812;28;20471;-84
2021/09/06 08:53:26;;;;;;;1.00;1.00;;;23.80;79.00;;;;;;4954908;29;20038;-80
2021/09/06 08:55:55;;;;;;;0.70;0.70;;;24.00;78.80;;;;;;4954521;29;20171;-80
2021/09/06 08:58:21;;;;;;;4.47;1.73;;;24.40;78.50;;;;;;4953935;29;20023;-85
2021/09/06 09:00:52;;;;;;;1.05;1.00;;;24.40;78.00;;;;;;4953772;29;20032;-81
2021/09/06 09:03:19;;;;;;;1.65;1.55;;;24.20;77.70;;;;;;4953303;29;20038;-82
2021/09/06 09:06:00;;;;;;;1.05;1.02;;;24.30;77.60;;;;;;4953119;29;20042;-88
2021/09/06 09:08:26;;;;;;;1.60;1.50;;;24.80;77.50;;;;;;4954922;28;20046;-89
2021/09/06 09:10:57;;;;;;;0.90;0.90;;;25.00;75.80;;;;;;4954461;29;20043;-90
2021/09/06 09:13:26;;;;;;;1.17;1.08;;;25.40;75.40;;;;;;4955596;29;20499;-80
2021/09/06 09:15:54;;;;;;;3.45;2.22;;;25.70;75.10;;;;;;4952905;29;20093;-88
2021/09/06 09:18:31;;;;;;;0.90;0.88;;;25.70;73.80;;;;;;4954599;29;20031;-80
2021/09/06 09:21:05;;;;;;;0.75;0.75;;;25.90;73.60;;;;;;4952767;29;20027;-90
2021/09/06 09:23:46;;;;;;;1.00;0.90;;;26.00;72.80;;;;;;4954221;28;20020;-82
2021/09/06 09:26:13;;;;;;;0.80;0.80;;;25.90;72.30;;;;;;4952659;29;20375;-87
2021/09/06 09:28:44;;;;;;;0.65;0.65;;;26.20;72.60;;;;;;4954442;28;20034;-83
2021/09/06 09:31:19;;;;;;;0.50;0.50;;;26.20;71.30;;;;;;4954069;28;20049;-78
2021/09/06 09:33:49;;;;;;;16.23;2.25;;;26.40;71.60;;;;;;4954489;28;20412;-85
2021/09/06 09:36:31;;;;;;;0.50;0.50;;;26.50;71.70;;;;;;4954167;28;20090;-82
2021/09/06 09:39:17;;;;;;;0.40;0.40;;;26.50;71.70;;;;;;4954586;28;20379;-83
2021/09/06 09:41:51;;;;;;;0.70;0.63;;;26.70;70.70;;;;;;4954682;28;20046;-88
2021/09/06 09:44:25;;;;;;;0.40;0.40;;;27.00;70.00;;;;;;4954926;28;20023;-81
2021/09/06 09:46:53;;;;;;;0.98;0.88;;;27.10;69.10;;;;;;4953949;28;20472;-86
2021/09/06 09:49:19;;;;;;;0.40;0.40;;;27.20;67.20;;;;;;4954825;28;20035;-88
2021/09/06 09:51:45;;;;;;;5.32;1.08;;;27.10;67.30;;;;;;4952513;29;20451;-91
2021/09/06 09:54:11;;;;;;;0.60;0.60;;;27.30;66.50;;;;;;4954646;28;20464;-88
2021/09/06 09:56:37;;;;;;;1.10;0.77;;;27.50;65.80;;;;;;4952570;28;20551;-81
2021/09/06 09:59:03;;;;;;;0.80;0.80;;;27.30;66.00;;;;;;4952824;29;20586;-83
2021/09/06 10:01:34;;;;;;;1.88;0.82;;;27.30;65.80;;;;;;4952312;29;20830;-81
2021/09/06 10:04:02;;;;;;;0.50;0.50;;;27.40;66.00;;;;;;4953862;28;20314;-82
2021/09/06 10:06:30;;;;;;;1.23;0.82;;;27.70;65.90;;;;;;4953195;28;20035;-81
2021/09/06 10:08:56;;;;;;;0.38;0.38;;;27.90;65.10;;;;;;4953414;28;20074;-90
2021/09/06 10:11:37;;;;;;;0.85;0.77;;;28.10;64.60;;;;;;4953585;28;20039;-85
2021/09/06 10:14:21;;;;;;;0.30;0.30;;;27.80;64.90;;;;;;4953427;28;20048;-79
2021/09/06 10:16:59;;;;;;;0.45;0.45;;;28.00;64.10;;;;;;4952078;28;20039;-78
2021/09/06 10:19:41;;;;;;;0.90;0.75;;;28.30;64.90;;;;;;4948070;29;20048;-82
2021/09/06 10:22:07;;;;;;;1.02;0.85;;;28.20;63.70;;;;;;4952386;29;20030;-82
2021/09/06 10:24:33;;;;;;;0.50;0.50;;;28.30;63.60;;;;;;4952429;28;20019;-87
2021/09/06 10:27:06;;;;;;;0.65;0.65;;;28.40;62.70;;;;;;4952562;28;20031;-78
2021/09/06 10:29:32;;;;;;;0.63;0.63;;;28.30;62.30;;;;;;4953084;29;20034;-81
2021/09/06 10:32:04;;;;;;;0.50;0.50;;;28.00;62.80;;;;;;4934483;29;20476;-82
2021/09/06 10:34:30;;;;;;;0.43;0.43;;;27.80;62.80;;;;;;4932413;29;20031;-84
2021/09/06 10:37:05;;;;;;;0.45;0.43;;;27.80;63.80;;;;;;4932823;29;20031;-82
2021/09/06 10:39:32;;;;;;;0.77;0.70;;;28.20;63.50;;;;;;4933029;29;20261;-81
2021/09/06 10:42:08;;;;;;;1.05;0.80;;;28.60;62.70;;;;;;4933151;29;20042;-86
2021/09/06 10:44:36;;;;;;;0.65;0.60;;;28.90;62.00;;;;;;4948686;29;20085;-80
2021/09/06 10:47:11;;;;;;;1.30;1.20;;;29.10;60.30;;;;;;4949133;28;20027;-81
2021/09/06 10:49:44;;;;;;;0.50;0.50;;;29.20;60.20;;;;;;4948284;29;20031;-83
2021/09/06 10:52:11;;;;;;;0.63;0.63;;;29.10;60.10;;;;;;4950369;28;20101;-80
2021/09/06 10:54:39;;;;;;;0.65;0.60;;;29.30;60.00;;;;;;4948791;28;20050;-79
2021/09/06 10:57:08;;;;;;;0.20;0.20;;;29.20;59.90;;;;;;4950596;29;20059;-79
2021/09/06 10:59:34;;;;;;;0.50;0.50;;;29.10;58.60;;;;;;4949918;28;20388;-80
2021/09/06 11:02:00;;;;;;;0.98;0.93;;;29.40;60.10;;;;;;4951169;29;20035;-81
2021/09/06 11:04:31;;;;;;;0.90;0.90;;;29.00;59.30;;;;;;4951033;28;20027;-81
2021/09/06 11:07:02;;;;;;;0.50;0.50;;;29.00;59.10;;;;;;4949942;28;20019;-78
2021/09/06 11:09:29;;;;;;;0.40;0.40;;;29.30;57.90;;;;;;4951315;29;20062;-81
2021/09/06 11:12:07;;;;;;;0.55;0.40;;;29.60;58.60;;;;;;4944110;28;20057;-82
2021/09/06 11:14:37;;;;;;;0.85;0.85;;;30.00;56.90;;;;;;4949148;28;20034;-80
2021/09/06 11:17:14;;;;;;;0.75;0.73;;;29.90;56.50;;;;;;4949594;28;20130;-79
2021/09/06 11:19:40;;;;;;;0.95;0.82;;;29.90;57.00;;;;;;4950144;29;20031;-80
2021/09/06 11:22:06;;;;;;;0.65;0.63;;;29.90;56.00;;;;;;4949642;28;20042;-78
2021/09/06 11:24:32;;;;;;;0.30;0.30;;;29.90;56.00;;;;;;4951476;28;20019;-79
2021/09/06 11:26:58;;;;;;;0.20;0.20;;;30.00;56.10;;;;;;4952059;28;20043;-81
2021/09/06 11:29:24;;;;;;;0.75;0.65;;;29.70;56.70;;;;;;4951540;29;20103;-76
2021/09/06 11:31:50;;;;;;;0.73;0.73;;;29.60;56.60;;;;;;4950945;28;20051;-78
2021/09/06 11:34:21;;;;;;;2.28;1.23;;;29.40;55.40;;;;;;4951459;28;20055;-80
2021/09/06 11:36:47;;;;;;;0.65;0.63;;;29.20;53.80;;;;;;4951757;28;20032;-81
2021/09/06 11:39:13;;;;;;;0.30;0.30;;;29.40;54.20;;;;;;4949766;29;20037;-80
2021/09/06 11:41:40;;;;;;;0.85;0.65;;;29.70;56.50;;;;;;4951713;28;20027;-80
2021/09/06 11:44:07;;;;;;;0.60;0.50;;;30.00;54.60;;;;;;4951416;28;20070;-81
2021/09/06 11:46:33;;;;;;;2.67;0.98;;;29.90;54.40;;;;;;4949448;29;20118;-77
2021/09/06 11:49:01;;;;;;;0.40;0.40;;;29.20;53.50;;;;;;4949615;29;20102;-79
2021/09/06 11:51:27;;;;;;;4.05;0.82;;;28.90;54.50;;;;;;4951123;28;20075;-77
2021/09/06 11:54:02;;;;;;;1.88;0.70;;;29.20;56.40;;;;;;4949545;29;20110;-79
2021/09/06 11:56:29;;;;;;;0.52;0.52;;;29.00;54.20;;;;;;4951171;28;20377;-80
2021/09/06 11:59:00;;;;;;;0.75;0.50;;;29.20;54.60;;;;;;4951401;28;20016;-78
2021/09/06 12:01:26;;;;;;;0.63;0.57;;;29.40;53.40;;;;;;4950954;28;20143;-76
2021/09/06 12:04:07;;;;;;;0.20;0.20;;;28.50;54.30;;;;;;4951187;28;20032;-79
2021/09/06 12:06:33;;;;;;;0.60;0.50;;;29.00;54.10;;;;;;4950782;28;20030;-78
2021/09/06 12:09:01;;;;;;;0.50;0.50;;;29.10;54.50;;;;;;4951124;28;20063;-78
2021/09/06 12:11:39;;;;;;;1.17;1.00;;;28.90;53.40;;;;;;4949936;29;20475;-81
2021/09/06 12:14:07;;;;;;;0.40;0.35;;;29.20;53.90;;;;;;4951058;28;20629;-78
2021/09/06 12:16:34;;;;;;;2.10;1.48;;;29.50;54.10;;;;;;4950509;28;20026;-78
2021/09/06 12:19:15;;;;;;;2.15;1.75;;;29.80;53.60;;;;;;4949793;28;20034;-77
2021/09/06 12:21:43;;;;;;;3.78;2.50;;;29.50;53.70;;;;;;4952476;29;20034;-77
2021/09/06 12:24:09;;;;;;;1.60;0.90;;;30.20;53.70;;;;;;4954494;29;20035;-79
2021/09/06 12:26:48;;;;;;;0.50;0.50;;;29.80;52.90;;;;;;4954417;28;20035;-81
2021/09/06 12:29:31;;;;;;;0.90;0.82;;;29.90;53.40;;;;;;4953279;29;20038;-77
2021/09/06 12:31:58;;;;;;;1.95;1.40;;;30.60;54.00;;;;;;4952168;29;20101;-79
2021/09/06 12:34:24;;;;;;;2.63;1.52;;;30.80;52.90;;;;;;4954233;29;20023;-80
2021/09/06 12:36:52;;;;;;;2.85;0.95;;;31.10;53.20;;;;;;4953429;28;20061;-77
2021/09/06 12:39:18;;;;;;;1.92;1.60;;;31.10;52.40;;;;;;4952442;28;20192;-79
2021/09/06 12:41:44;;;;;;;0.93;0.60;;;31.50;52.10;;;;;;4952617;28;20035;-79
2021/09/06 12:44:09;;;;;;;1.38;0.93;;;30.80;51.70;;;;;;4954005;28;20551;-77
2021/09/06 12:46:36;;;;;;;1.67;0.68;;;30.70;51.40;;;;;;4952280;28;20031;-82
2021/09/06 12:49:02;;;;;;;1.20;1.00;;;30.00;52.10;;;;;;4954292;28;20147;-81